createdAt,value
2017-04-29T00:00:40.024Z,10.22
2017-04-29T00:03:09.077Z,10.92
2017-04-29T00:05:38.137Z,11.05
2017-04-29T00:08:07.149Z,10.40
2017-04-29T00:10:36.189Z,10.08
2017-04-29T00:13:05.230Z,11.93
2017-04-29T00:15:34.282Z,12.05
2017-04-29T00:18:03.325Z,11.63
2017-04-29T00:20:32.362Z,12.97
2017-04-29T00:23:01.417Z,12.02
2017-04-29T00:25:30.456Z,16.08
2017-04-29T00:27:59.503Z,15.73
2017-04-29T00:30:28.545Z,11.55
2017-04-29T00:32:57.613Z,12.35
2017-04-29T00:35:26.653Z,13.32
2017-04-29T00:37:56.430Z,13.47
2017-04-29T00:40:25.484Z,11.65
2017-04-29T00:42:54.514Z,18.18
2017-04-29T00:45:23.557Z,13.57
2017-04-29T00:47:52.602Z,12.72
2017-04-29T00:50:21.650Z,14.92
2017-04-29T00:52:50.695Z,12.73
2017-04-29T00:55:19.749Z,13.98
2017-04-29T00:57:48.783Z,11.40
2017-04-29T01:00:17.835Z,16.92
2017-04-29T01:02:46.881Z,12.63
2017-04-29T01:05:15.948Z,14.97
2017-04-29T01:07:44.983Z,11.65
2017-04-29T01:10:14.015Z,14.68
2017-04-29T01:12:43.058Z,12.23
2017-04-29T01:15:12.093Z,12.35
2017-04-29T01:17:41.148Z,14.07
2017-04-29T01:20:10.173Z,14.40
2017-04-29T01:22:39.962Z,11.58
2017-04-29T01:25:09.002Z,12.63
2017-04-29T01:27:38.050Z,12.67
2017-04-29T01:30:07.077Z,12.43
2017-04-29T01:32:36.130Z,11.20
2017-04-29T01:35:05.165Z,9.48
2017-04-29T01:37:34.203Z,11.20
2017-04-29T01:40:03.228Z,11.78
2017-04-29T01:42:33.020Z,10.58
2017-04-29T01:45:02.054Z,10.88
2017-04-29T01:47:31.106Z,10.28
2017-04-29T01:50:00.146Z,12.45
2017-04-29T01:52:29.189Z,12.75
2017-04-29T01:54:58.234Z,14.33
2017-04-29T01:57:27.281Z,12.75
2017-04-29T01:59:56.345Z,15.87
2017-04-29T02:02:25.369Z,11.63
2017-04-29T02:04:54.414Z,13.78
2017-04-29T02:07:23.459Z,13.55
2017-04-29T02:09:52.493Z,14.13
2017-04-29T02:12:21.541Z,12.83
2017-04-29T02:14:51.339Z,13.13
2017-04-29T02:17:20.388Z,14.33
2017-04-29T02:19:49.429Z,13.58
2017-04-29T02:22:18.478Z,16.92
2017-04-29T02:24:47.525Z,13.42
2017-04-29T02:27:16.579Z,15.15
2017-04-29T02:29:45.621Z,15.60
2017-04-29T02:32:14.677Z,12.90
2017-04-29T02:34:43.711Z,13.30
2017-04-29T02:37:12.775Z,13.93
2017-04-29T02:39:41.806Z,14.35
2017-04-29T02:42:10.863Z,14.52
2017-04-29T02:44:39.893Z,16.93
2017-04-29T02:47:08.941Z,13.87
2017-04-29T02:49:38.025Z,13.78
2017-04-29T02:52:07.069Z,14.08
2017-04-29T02:54:36.107Z,15.65
2017-04-29T02:57:05.182Z,21.22
2017-04-29T02:59:34.954Z,15.07
2017-04-29T03:02:03.988Z,16.12
2017-04-29T03:04:33.781Z,13.47
2017-04-29T03:07:02.817Z,12.20
2017-04-29T03:09:31.885Z,15.32
2017-04-29T03:12:01.675Z,14.67
2017-04-29T03:14:30.719Z,16.65
2017-04-29T03:16:59.770Z,16.75
2017-04-29T03:19:28.826Z,19.55
2017-04-29T03:21:57.872Z,17.23
2017-04-29T03:24:27.660Z,17.48
2017-04-29T03:26:56.714Z,14.82
2017-04-29T03:29:25.797Z,18.37
2017-04-29T03:31:54.866Z,17.68
2017-04-29T03:34:24.671Z,18.23
2017-04-29T03:36:54.456Z,20.28
2017-04-29T03:39:23.505Z,18.15
2017-04-29T03:41:52.536Z,18.48
2017-04-29T03:44:21.594Z,17.40
2017-04-29T03:46:50.665Z,15.58
2017-04-29T03:49:20.500Z,18.18
2017-04-29T03:51:49.542Z,17.93
2017-04-29T03:54:18.612Z,17.83
2017-04-29T03:56:47.648Z,18.82
2017-04-29T03:59:16.698Z,20.28
2017-04-29T04:01:45.752Z,18.33
2017-04-29T04:04:14.807Z,14.05
2017-04-29T04:06:43.858Z,15.77
2017-04-29T04:09:12.921Z,19.53
2017-04-29T04:11:41.953Z,15.58
2017-04-29T04:14:10.986Z,14.62
2017-04-29T04:16:40.057Z,15.30
2017-04-29T04:19:09.105Z,14.92
2017-04-29T04:21:38.901Z,14.13
2017-04-29T04:24:07.949Z,14.60
2017-04-29T04:26:37.000Z,16.58
2017-04-29T04:29:06.795Z,15.35
2017-04-29T04:31:35.865Z,17.33
2017-04-29T04:34:04.889Z,14.42
2017-04-29T04:36:33.946Z,15.62
2017-04-29T04:39:02.992Z,15.92
2017-04-29T04:41:32.053Z,16.87
2017-04-29T04:44:01.131Z,17.60
2017-04-29T04:46:30.202Z,14.82
2017-04-29T04:48:59.248Z,15.12
2017-04-29T04:51:28.316Z,20.08
2017-04-29T04:53:57.343Z,19.83
2017-04-29T04:56:26.408Z,15.37
2017-04-29T04:58:55.468Z,17.50
2017-04-29T05:01:24.516Z,14.65
2017-04-29T05:03:53.580Z,19.53
2017-04-29T05:06:22.630Z,18.98
2017-04-29T05:08:52.422Z,15.63
2017-04-29T05:11:21.466Z,17.98
2017-04-29T05:13:50.515Z,15.85
2017-04-29T05:16:19.572Z,17.78
2017-04-29T05:18:48.648Z,16.82
2017-04-29T05:21:17.706Z,20.25
2017-04-29T05:23:47.481Z,20.60
2017-04-29T05:26:16.621Z,17.85
2017-04-29T05:28:45.634Z,18.33
2017-04-29T05:31:14.684Z,17.83
2017-04-29T05:33:43.722Z,15.87
2017-04-29T05:36:12.787Z,18.65
2017-04-29T05:38:41.806Z,19.20
2017-04-29T05:41:10.876Z,22.48
2017-04-29T05:43:40.677Z,19.47
2017-04-29T05:46:09.736Z,15.55
2017-04-29T05:48:38.787Z,16.35
2017-04-29T05:51:08.598Z,19.90
2017-04-29T05:53:38.367Z,15.18
2017-04-29T05:56:07.431Z,16.52
2017-04-29T05:58:36.474Z,20.72
2017-04-29T06:01:05.536Z,16.87
2017-04-29T06:03:34.570Z,16.67
2017-04-29T06:06:04.357Z,20.58
2017-04-29T06:08:33.397Z,18.27
2017-04-29T06:11:02.442Z,18.13
2017-04-29T06:13:31.547Z,17.45
2017-04-29T06:16:00.581Z,20.77
2017-04-29T06:18:29.652Z,22.45
2017-04-29T06:20:58.695Z,17.65
2017-04-29T06:23:27.755Z,19.15
2017-04-29T06:25:57.581Z,18.40
2017-04-29T06:28:26.667Z,18.78
2017-04-29T06:30:55.714Z,17.57
2017-04-29T06:33:24.779Z,20.02
2017-04-29T06:35:53.831Z,20.63
2017-04-29T06:38:23.637Z,21.23
2017-04-29T06:40:52.676Z,23.90
2017-04-29T06:43:21.744Z,22.23
2017-04-29T06:45:51.513Z,21.10
2017-04-29T06:48:20.634Z,22.12
2017-04-29T06:50:50.445Z,20.53
2017-04-29T06:53:20.261Z,20.47
2017-04-29T06:55:49.312Z,18.47
2017-04-29T06:58:18.361Z,22.35
2017-04-29T07:00:48.124Z,17.92
2017-04-29T07:03:17.179Z,19.32
2017-04-29T07:05:46.233Z,19.05
2017-04-29T07:08:16.466Z,21.35
2017-04-29T07:10:45.524Z,24.38
2017-04-29T07:13:14.611Z,21.97
2017-04-29T07:15:43.640Z,19.28
2017-04-29T07:18:12.689Z,20.35
2017-04-29T07:20:41.736Z,18.00
2017-04-29T07:23:10.807Z,21.73
2017-04-29T07:25:39.842Z,14.00
2017-04-29T07:28:09.672Z,18.60
2017-04-29T07:30:38.741Z,16.60
2017-04-29T07:33:07.774Z,14.58
2017-04-29T07:35:36.831Z,14.92
2017-04-29T07:38:06.627Z,15.20
2017-04-29T07:40:35.661Z,18.17
2017-04-29T07:43:04.731Z,16.33
2017-04-29T07:45:34.525Z,17.47
2017-04-29T07:48:04.341Z,19.73
2017-04-29T07:50:34.180Z,21.25
2017-04-29T07:53:03.238Z,19.55
2017-04-29T07:55:33.047Z,22.80
2017-04-29T07:58:02.117Z,18.57
2017-04-29T08:00:31.172Z,11.88
2017-04-29T08:03:00.221Z,14.88
2017-04-29T08:05:29.311Z,12.58
2017-04-29T08:07:58.344Z,13.80
2017-04-29T08:10:28.161Z,14.16
2017-04-29T08:12:57.957Z,10.50
2017-04-29T08:15:27.017Z,10.12
2017-04-29T08:17:56.061Z,11.00
2017-04-29T08:20:25.856Z,14.72
2017-04-29T08:22:54.897Z,10.98
2017-04-29T08:25:23.945Z,8.06
2017-04-29T08:27:53.747Z,20.24
2017-04-29T08:30:22.803Z,11.64
2017-04-29T08:32:51.865Z,12.12
2017-04-29T08:35:20.936Z,10.83
2017-04-29T08:37:50.730Z,12.00
2017-04-29T08:40:19.789Z,13.18
2017-04-29T08:42:48.825Z,11.20
2017-04-29T08:45:17.898Z,11.43
2017-04-29T08:47:46.952Z,10.23
2017-04-29T08:50:16.023Z,8.08
2017-04-29T08:52:45.824Z,11.50
2017-04-29T08:55:14.877Z,10.18
2017-04-29T08:57:43.938Z,13.52
2017-04-29T09:00:13.030Z,20.22
2017-04-29T09:02:42.830Z,16.78
2017-04-29T09:05:12.651Z,20.58
2017-04-29T09:07:42.470Z,18.68
2017-04-29T09:10:11.593Z,22.40
2017-04-29T09:12:40.638Z,21.47
2017-04-29T09:15:10.467Z,17.62
2017-04-29T09:17:39.555Z,16.23
2017-04-29T09:20:09.365Z,13.20
2017-04-29T09:22:39.159Z,13.72
2017-04-29T09:25:08.218Z,6.80
2017-04-29T09:27:37.321Z,13.62
2017-04-29T09:30:13.331Z,10.36
2017-04-29T09:32:43.099Z,10.48
2017-04-29T09:35:12.181Z,8.22
2017-04-29T09:37:41.241Z,8.78
2017-04-29T09:40:11.008Z,6.68
2017-04-29T09:42:40.078Z,8.44
2017-04-29T09:45:09.106Z,7.36
2017-04-29T09:47:38.154Z,10.24
2017-04-29T09:50:07.199Z,7.74
2017-04-29T09:52:36.248Z,4.66
2017-04-29T09:55:05.278Z,9.20
2017-04-29T09:57:34.349Z,7.66
2017-04-29T10:00:03.389Z,6.70
2017-04-29T10:02:33.186Z,8.24
2017-04-29T10:05:02.992Z,11.40
2017-04-29T10:07:32.036Z,7.86
2017-04-29T10:10:01.069Z,6.72
2017-04-29T10:12:30.122Z,7.48
2017-04-29T10:14:59.165Z,6.96
2017-04-29T10:17:28.219Z,6.94
2017-04-29T10:19:57.259Z,7.28
2017-04-29T10:22:26.329Z,7.68
2017-04-29T10:24:55.369Z,8.02
2017-04-29T10:27:25.169Z,7.76
2017-04-29T10:29:55.086Z,8.08
2017-04-29T10:32:24.162Z,8.34
2017-04-29T10:34:53.965Z,9.38
2017-04-29T10:37:23.045Z,7.54
2017-04-29T10:39:52.108Z,8.60
2017-04-29T10:42:21.134Z,8.34
2017-04-29T10:44:50.185Z,9.84
2017-04-29T10:47:19.235Z,7.30
2017-04-29T10:49:48.281Z,8.94
2017-04-29T10:52:17.460Z,7.34
2017-04-29T10:54:46.497Z,7.12
2017-04-29T10:57:15.574Z,7.46
2017-04-29T10:59:45.336Z,11.50
2017-04-29T11:02:14.378Z,8.92
2017-04-29T11:04:43.441Z,9.88
2017-04-29T11:07:13.052Z,9.22
2017-04-29T11:09:42.952Z,7.16
2017-04-29T11:12:11.978Z,7.86
2017-04-29T11:14:41.057Z,5.76
2017-04-29T11:17:10.436Z,5.32
2017-04-29T11:19:39.501Z,5.20
2017-04-29T11:22:08.550Z,5.68
2017-04-29T11:24:38.356Z,5.08
2017-04-29T11:27:08.132Z,9.56
2017-04-29T11:29:37.216Z,6.60
2017-04-29T11:32:06.361Z,6.66
2017-04-29T11:34:35.415Z,6.88
2017-04-29T11:37:04.551Z,7.14
2017-04-29T11:39:33.626Z,7.38
2017-04-29T11:42:02.715Z,8.36
2017-04-29T11:44:31.756Z,7.90
2017-04-29T11:47:00.798Z,8.64
2017-04-29T11:49:29.821Z,8.02
2017-04-29T11:51:59.625Z,11.70
2017-04-29T11:54:29.389Z,11.00
2017-04-29T11:56:58.459Z,9.26
2017-04-29T11:59:28.215Z,5.88
2017-04-29T12:01:57.296Z,6.38
2017-04-29T12:04:26.325Z,6.82
2017-04-29T12:06:56.131Z,7.32
2017-04-29T12:09:25.184Z,7.36
2017-04-29T12:11:54.243Z,6.36
2017-04-29T12:14:24.024Z,7.00
2017-04-29T12:16:53.083Z,6.84
2017-04-29T12:19:22.114Z,6.16
2017-04-29T12:21:51.198Z,6.80
2017-04-29T12:24:20.252Z,6.96
2017-04-29T12:26:49.291Z,6.72
2017-04-29T12:29:18.332Z,6.86
2017-04-29T12:31:47.411Z,6.60
2017-04-29T12:34:17.215Z,6.48
2017-04-29T12:36:46.294Z,6.66
2017-04-29T12:39:15.319Z,7.20
2017-04-29T12:41:44.393Z,7.44
2017-04-29T12:44:13.500Z,10.28
2017-04-29T12:46:43.412Z,8.82
2017-04-29T12:49:12.443Z,9.24
2017-04-29T12:51:41.485Z,9.00
2017-04-29T12:54:11.308Z,8.72
2017-04-29T12:56:40.323Z,9.46
2017-04-29T12:59:09.421Z,8.70
2017-04-29T13:01:38.458Z,8.22
2017-04-29T13:04:07.554Z,7.92
2017-04-29T13:06:36.631Z,9.88
2017-04-29T13:09:05.685Z,9.96
2017-04-29T13:11:35.538Z,10.34
2017-04-29T13:14:04.604Z,11.30
2017-04-29T13:16:33.744Z,10.72
2017-04-29T13:19:02.781Z,10.74
2017-04-29T13:21:32.603Z,10.36
2017-04-29T13:24:01.638Z,10.68
2017-04-29T13:26:31.467Z,10.28
2017-04-29T13:29:00.530Z,9.22
2017-04-29T13:31:29.583Z,10.56
2017-04-29T13:33:59.427Z,10.00
2017-04-29T13:36:28.456Z,9.94
2017-04-29T13:38:57.551Z,10.60
2017-04-29T13:41:26.676Z,9.20
2017-04-29T13:43:55.748Z,9.04
2017-04-29T13:46:25.059Z,8.38
2017-04-29T13:48:54.868Z,9.62
2017-04-29T13:51:24.010Z,9.36
2017-04-29T13:53:53.038Z,7.78
2017-04-29T13:56:22.109Z,7.70
2017-04-29T13:58:51.141Z,7.24
2017-04-29T14:01:20.227Z,7.76
2017-04-29T14:03:50.071Z,6.84
2017-04-29T14:06:19.084Z,6.94
2017-04-29T14:08:48.179Z,9.50
2017-04-29T14:11:17.231Z,6.72
2017-04-29T14:13:46.357Z,5.76
2017-04-29T14:16:15.406Z,5.30
2017-04-29T14:18:44.501Z,7.10
2017-04-29T14:21:13.547Z,5.58
2017-04-29T14:23:42.570Z,5.58
2017-04-29T14:26:11.622Z,6.10
2017-04-29T14:28:41.386Z,4.92
2017-04-29T14:31:10.454Z,5.30
2017-04-29T14:33:40.643Z,5.18
2017-04-29T14:36:09.837Z,5.64
2017-04-29T14:38:38.930Z,4.72
2017-04-29T14:41:08.722Z,4.64
2017-04-29T14:43:37.778Z,4.68
2017-04-29T14:46:06.822Z,4.78
2017-04-29T14:48:35.934Z,4.48
2017-04-29T14:51:05.733Z,3.84
2017-04-29T14:53:34.753Z,4.50
2017-04-29T14:56:03.824Z,4.68
2017-04-29T14:58:32.846Z,4.82
2017-04-29T15:01:01.907Z,4.42
2017-04-29T15:03:30.982Z,4.98
2017-04-29T15:06:00.046Z,4.66
2017-04-29T15:08:29.093Z,4.36
2017-04-29T15:10:58.101Z,4.80
2017-04-29T15:13:27.913Z,5.50
2017-04-29T15:15:57.669Z,4.56
2017-04-29T15:18:26.735Z,5.08
2017-04-29T15:20:55.779Z,5.24
2017-04-29T15:23:24.838Z,5.24
2017-04-29T15:25:53.858Z,5.26
2017-04-29T15:28:22.884Z,5.40
2017-04-29T15:30:52.667Z,4.88
2017-04-29T15:33:21.702Z,5.14
2017-04-29T15:35:50.753Z,4.86
2017-04-29T15:38:19.808Z,5.56
2017-04-29T15:40:48.870Z,4.38
2017-04-29T15:43:18.684Z,4.60
2017-04-29T15:45:47.726Z,4.66
2017-04-29T15:48:16.779Z,4.56
2017-04-29T15:50:45.827Z,4.86
2017-04-29T15:53:14.867Z,4.44
2017-04-29T15:55:44.776Z,4.82
2017-04-29T15:58:13.868Z,6.28
2017-04-29T16:00:43.658Z,5.42
2017-04-29T16:03:13.503Z,6.44
2017-04-29T16:05:42.532Z,5.06
2017-04-29T16:08:11.568Z,5.16
2017-04-29T16:10:41.382Z,4.90
2017-04-29T16:13:11.165Z,5.64
2017-04-29T16:15:40.226Z,5.08
2017-04-29T16:18:09.277Z,4.92
2017-04-29T16:20:38.365Z,4.70
2017-04-29T16:23:07.377Z,4.80
2017-04-29T16:25:37.148Z,4.70
2017-04-29T16:28:06.208Z,5.76
2017-04-29T16:30:35.251Z,6.54
2017-04-29T16:33:04.324Z,4.52
2017-04-29T16:35:33.383Z,4.80
2017-04-29T16:38:02.454Z,4.88
2017-04-29T16:40:32.269Z,5.00
2017-04-29T16:43:01.297Z,5.38
2017-04-29T16:45:30.406Z,5.06
2017-04-29T16:47:59.449Z,5.64
2017-04-29T16:50:28.503Z,5.10
2017-04-29T16:52:57.541Z,6.00
2017-04-29T16:55:27.457Z,4.96
2017-04-29T16:57:56.487Z,5.02
2017-04-29T17:00:25.540Z,5.22
2017-04-29T17:02:55.334Z,5.10
2017-04-29T17:05:24.360Z,5.58
2017-04-29T17:07:53.455Z,5.24
2017-04-29T17:10:22.517Z,5.04
2017-04-29T17:12:51.579Z,5.06
2017-04-29T17:15:20.620Z,5.38
2017-04-29T17:17:50.407Z,5.62
2017-04-29T17:20:19.481Z,5.60
2017-04-29T17:22:48.526Z,5.32
2017-04-29T17:25:18.306Z,6.08
2017-04-29T17:27:47.338Z,6.74
2017-04-29T17:30:17.171Z,7.56
2017-04-29T17:32:46.219Z,5.52
2017-04-29T17:35:15.291Z,4.72
2017-04-29T17:37:44.347Z,5.06
2017-04-29T17:40:13.437Z,5.80
2017-04-29T17:42:42.489Z,4.82
2017-04-29T17:45:11.531Z,5.58
2017-04-29T17:47:40.599Z,4.94
2017-04-29T17:50:10.377Z,4.86
2017-04-29T17:52:39.425Z,5.74
2017-04-29T17:55:09.221Z,5.12
2017-04-29T17:57:39.005Z,5.94
2017-04-29T18:00:08.057Z,5.28
2017-04-29T18:02:37.123Z,5.12
2017-04-29T18:05:06.932Z,5.58
2017-04-29T18:07:36.699Z,5.08
2017-04-29T18:10:06.145Z,5.96
2017-04-29T18:12:35.229Z,5.52
2017-04-29T18:15:05.007Z,5.70
2017-04-29T18:17:34.079Z,5.98
2017-04-29T18:20:03.139Z,5.38
2017-04-29T18:22:33.062Z,5.46
2017-04-29T18:25:02.137Z,5.94
2017-04-29T18:27:31.163Z,5.34
2017-04-29T18:30:00.205Z,6.38
2017-04-29T18:32:29.252Z,6.08
2017-04-29T18:34:58.295Z,6.02
2017-04-29T18:37:27.337Z,6.42
2017-04-29T18:39:56.414Z,6.40
2017-04-29T18:42:25.462Z,5.72
2017-04-29T18:44:54.498Z,5.80
2017-04-29T18:47:24.310Z,6.56
2017-04-29T18:49:54.225Z,8.12
2017-04-29T18:52:24.009Z,5.74
2017-04-29T18:54:53.064Z,5.86
2017-04-29T18:57:22.174Z,5.76
2017-04-29T18:59:51.274Z,5.88
2017-04-29T19:02:20.333Z,5.88
2017-04-29T19:04:49.395Z,6.33
2017-04-29T19:07:18.451Z,6.40
2017-04-29T19:09:47.505Z,6.52
2017-04-29T19:12:16.575Z,9.30
2017-04-29T19:14:45.652Z,8.73
2017-04-29T19:17:14.686Z,10.48
2017-04-29T19:19:43.759Z,7.32
2017-04-29T19:22:13.562Z,6.58
2017-04-29T19:24:43.386Z,8.00
2017-04-29T19:27:12.446Z,6.95
2017-04-29T19:29:41.518Z,7.28
2017-04-29T19:32:10.575Z,6.72
2017-04-29T19:34:39.674Z,7.97
2017-04-29T19:37:08.698Z,7.08
2017-04-29T19:39:37.762Z,6.67
2017-04-29T19:42:07.575Z,7.63
2017-04-29T19:44:37.391Z,9.53
2017-04-29T19:47:06.461Z,8.87
2017-04-29T19:49:35.509Z,8.73
2017-04-29T19:52:04.549Z,7.87
2017-04-29T19:54:33.601Z,7.55
2017-04-29T19:57:02.752Z,7.92
2017-04-29T19:59:32.546Z,7.42
2017-04-29T20:02:01.636Z,7.73
2017-04-29T20:04:30.743Z,7.10
2017-04-29T20:06:59.865Z,10.13
2017-04-29T20:09:29.843Z,8.62
2017-04-29T20:11:58.911Z,8.82
2017-04-29T20:14:27.969Z,8.73
2017-04-29T20:16:57.728Z,9.42
2017-04-29T20:19:27.653Z,10.08
2017-04-29T20:21:56.832Z,10.42
2017-04-29T20:24:25.962Z,9.35
2017-04-29T20:26:55.062Z,10.37
2017-04-29T20:29:24.105Z,9.62
2017-04-29T20:31:53.188Z,10.98
2017-04-29T20:34:22.205Z,8.50
2017-04-29T20:36:51.296Z,11.17
2017-04-29T20:39:20.710Z,10.43
2017-04-29T20:41:49.761Z,10.22
2017-04-29T20:44:19.646Z,9.05
2017-04-29T20:46:49.575Z,10.97
2017-04-29T20:49:18.698Z,11.22
2017-04-29T20:51:47.759Z,11.00
2017-04-29T20:54:17.553Z,10.97
2017-04-29T20:56:46.779Z,9.33
2017-04-29T20:59:15.883Z,9.22
2017-04-29T21:01:44.969Z,9.65
2017-04-29T21:04:14.819Z,10.88
2017-04-29T21:06:43.850Z,10.60
2017-04-29T21:09:12.902Z,9.50
2017-04-29T21:11:43.320Z,9.07
2017-04-29T21:14:13.150Z,9.95
2017-04-29T21:16:42.247Z,9.72
2017-04-29T21:19:11.544Z,9.03
2017-04-29T21:21:40.883Z,10.05
2017-04-29T21:24:09.953Z,8.45
2017-04-29T21:26:39.143Z,8.60
2017-04-29T21:29:08.276Z,8.82
2017-04-29T21:31:37.317Z,9.57
2017-04-29T21:34:06.354Z,8.48
2017-04-29T21:36:35.409Z,8.77
2017-04-29T21:39:04.473Z,10.25
2017-04-29T21:41:33.539Z,10.50
2017-04-29T21:44:02.638Z,8.70
2017-04-29T21:46:31.695Z,8.20
2017-04-29T21:49:00.718Z,8.45
2017-04-29T21:51:29.766Z,9.13
2017-04-29T21:53:58.803Z,9.65
2017-04-29T21:56:27.865Z,9.60
2017-04-29T21:58:57.018Z,8.05
2017-04-29T22:01:26.061Z,7.68
2017-04-29T22:03:55.124Z,9.68
2017-04-29T22:06:24.150Z,8.67
2017-04-29T22:08:53.208Z,7.88
2017-04-29T22:11:22.238Z,8.60
2017-04-29T22:13:51.284Z,8.02
2017-04-29T22:16:21.060Z,10.13
2017-04-29T22:18:50.086Z,7.53
2017-04-29T22:21:19.887Z,8.27
2017-04-29T22:23:48.910Z,7.40
2017-04-29T22:26:17.977Z,8.47
2017-04-29T22:28:46.997Z,8.08
2017-04-29T22:31:16.107Z,7.78
2017-04-29T22:33:45.145Z,8.28
2017-04-29T22:36:14.170Z,8.12
2017-04-29T22:38:43.236Z,7.53
2017-04-29T22:41:12.282Z,7.73
2017-04-29T22:43:41.333Z,8.18
2017-04-29T22:46:10.388Z,7.88
2017-04-29T22:48:39.472Z,8.08
2017-04-29T22:51:08.481Z,8.05
2017-04-29T22:53:37.536Z,17.23
2017-04-29T22:56:06.593Z,7.77
2017-04-29T22:58:35.612Z,7.92
2017-04-29T23:01:05.390Z,7.30
2017-04-29T23:03:34.435Z,7.48
2017-04-29T23:06:03.507Z,7.90
2017-04-29T23:08:32.530Z,7.85
2017-04-29T23:11:01.563Z,7.62
2017-04-29T23:13:30.623Z,8.03
2017-04-29T23:15:59.663Z,8.20
2017-04-29T23:18:28.724Z,7.62
2017-04-29T23:20:57.750Z,8.27
2017-04-29T23:23:26.833Z,8.48
2017-04-29T23:25:55.871Z,9.55
2017-04-29T23:28:24.891Z,7.20
2017-04-29T23:30:53.925Z,8.23
2017-04-29T23:33:22.964Z,9.10
2017-04-29T23:35:52.006Z,7.78
2017-04-29T23:38:21.030Z,9.72
2017-04-29T23:40:50.836Z,7.97
2017-04-29T23:43:19.969Z,7.55
2017-04-29T23:45:48.974Z,13.23
2017-04-29T23:48:18.056Z,7.20
2017-04-29T23:50:47.458Z,7.13
2017-04-29T23:53:16.517Z,8.87
2017-04-29T23:55:46.302Z,7.48
2017-04-29T23:58:15.393Z,8.10
